Flight Track Log - Related Links

Times and Time Zones

All times are in EDT time to prevent confusion due to time zone crossing. See the N508QS flight status page for this flight to view local times or setup timezone preferences in your user account.

Time Position Orientation Groundspeed Altitude Reporting Facility
EDT Latitude Longitude Course Direction KTS MPH feet Rate Location/Type
Tue 02:48:44 PM 40.3333 -74.8500 333° Northwest 202 232 2,400  Level Philadelphia TRACON
Tue 02:49:38 PM 40.3667 -74.9000 311° West 202 232 3,100 368 Climbing Philadelphia TRACON
Tue 02:50:38 PM 40.3333 -74.9667 237° Southwest 262 302 3,100  Level Philadelphia TRACON
Tue 02:51:44 PM 40.2833 -75.0500 232° Southwest 259 298 3,100 1,273 Level Philadelphia TRACON
Tue 02:52:50 PM 40.2167 -75.1167 217° Southwest 273 314 5,900 2,857 Climbing Philadelphia TRACON
Tue 02:53:50 PM 40.1667 -75.2000 232° Southwest 296 341 9,100 2,167 Climbing Philadelphia TRACON
Tue 02:55:14 PM 40.1275 -75.3344 249° West 305 351 11,100 1,448 Climbing New Center
Tue 02:56:15 PM 40.1150 -75.4394 261° West 300 345 12,600 1,008 Climbing New Center
Tue 02:57:13 PM 40.1806 -75.5172 318° Northwest 279 321 13,100 814 Climbing New Center
Tue 02:58:13 PM 40.2481 -75.6006 317° Northwest 314 361 14,200 1,339 Climbing New Center
Tue 02:59:14 PM 40.3167 -75.7033 311° West 350 403 15,800 908 Climbing New Center
Tue 03:00:12 PM 40.3931 -75.8206 311° West 373 429 16,000 101 Climbing New Center
Tue 03:01:13 PM 40.4817 -75.8925 328° Northwest 372 428 16,000 295 Level New Center
Tue 03:02:14 PM 40.5886 -75.8814 North 366 421 16,600 492 Climbing New Center
Tue 03:03:15 PM 40.6861 -75.8422 17° North 371 427 17,000 202 Climbing New Center
Tue 03:04:13 PM 40.7903 -75.7950 19° North 383 441 17,000  Level New Center
Tue 03:05:13 PM 40.9050 -75.7378 21° North 395 455 17,000  Level New Center
Tue 03:06:13 PM 40.9981 -75.6564 33° Northeast 403 464 17,000 50 Level New Center
Tue 03:07:14 PM 41.0822 -75.5856 32° Northeast 403 464 17,100 50 Climbing New Center
Tue 03:08:14 PM 41.1983 -75.5469 14° North 388 447 17,100 -50 Level New Center
Tue 03:09:13 PM 41.3056 -75.5214 10° North 388 447 17,000 -50 Descending New Center
Tue 03:10:14 PM 41.4150 -75.4958 10° North 393 452 17,000 -38 Level New Center
Tue 03:11:53 PM 41.5736 -75.4094 22° Northeast 406 467 16,900 -38 Descending Boston Center
Tue 03:12:51 PM 41.6714 -75.3389 28° Northeast 401 461 16,900  Level Boston Center
Tue 03:13:51 PM 41.7669 -75.2681 29° Northeast 396 456 16,900  Level Boston Center
Tue 03:14:52 PM 41.8625 -75.1972 29° Northeast 396 456 16,900  Level Boston Center
Tue 03:15:52 PM 41.9664 -75.1178 30° Northeast 385 443 16,900  Level Boston Center
Tue 03:16:53 PM 42.0597 -75.0492 29° Northeast 385 443 16,900 -738 Level Boston Center
Tue 03:17:54 PM 42.1553 -74.9775 29° Northeast 385 443 15,400 -1,475 Descending Boston Center
Tue 03:18:51 PM 42.2242 -74.8708 49° Northeast 374 430 14,000 -1,538 Descending Boston Center
Tue 03:19:51 PM 42.2853 -74.7497 56° Northeast 374 430 12,400 -1,533 Descending Boston Center
Tue 03:20:21 PM 42.3158 -74.6836 58° Northeast 385 443 11,700 -1,180 Descending Boston Center
Tue 03:20:52 PM 42.3417 -74.6283 58° Northeast 384 442 11,200 -913 Descending Boston Center
Tue 03:21:07 PM 42.3569 -74.6036 50° Northeast 375 432 11,000 -100 Descending Boston Center
Tue 03:21:52 PM 42.3939 -74.5233 58° Northeast 379 436 11,100  Climbing Boston Center
Tue 03:22:07 PM 42.4111 -74.4900 55° Northeast 365 420 11,000 -800 Descending Boston Center
Tue 03:22:52 PM 42.4522 -74.3958 59° Northeast 369 425 10,300 -1,082 Descending Boston Center
Tue 03:23:08 PM 42.4631 -74.3736 57° Northeast 349 402 9,900 -885 Descending Boston Center
Tue 03:23:53 PM 42.4872 -74.3011 66° East 331 381 9,400 -1,200 Descending Boston Center
Tue 03:24:08 PM 42.4961 -74.2706 68° East 281 323 8,700 -1,862 Descending Boston Center
Tue 03:24:51 PM 42.5222 -74.1953 65° Northeast 288 331 7,600 -1,672 Descending Boston Center
Tue 03:25:09 PM 42.5353 -74.1700 55° Northeast 277 319 7,000 -1,800 Descending Boston Center
Tue 03:25:51 PM 42.5506 -74.1114 70° East 273 314 5,800 -1,869 Descending Boston Center
Tue 03:26:10 PM 42.5636 -74.0778 62° Northeast 271 312 5,100 -1,574 Descending Boston Center
Tue 03:26:52 PM 42.5856 -74.0108 66° East 273 314 4,200 -985 Descending Boston Center
Tue 03:27:17 PM 42.5964 -73.9828 62° Northeast 256 295 4,000 -787 Descending Boston Center
Tue 03:27:53 PM 42.6136 -73.9297 66° East 253 291 3,400 -938 Descending Boston Center
Tue 03:28:21 PM 42.6289 -73.8850 65° Northeast 244 281 3,000 -414 Descending Boston Center
Tue 03:28:51 PM 42.6375 -73.8569 67° East 241 277 3,000 -764 Level Boston Center
Tue 03:29:16 PM 42.6483 -73.8203 68° East 185 213 2,300 -393 Descending Boston Center
Tue 03:29:52 PM 42.6678 -73.7700 62° Northeast 230 265 2,600 -1,000 Climbing Boston Center
Tue 03:30:16 PM 42.6881 -73.8044 309° West 139 160 1,300 8,262 Descending Boston Center
Tue 03:30:53 PM 42.6956 -73.6944 85° East 230 265 11,000 -677 Climbing Boston Center
Tue 03:31:18 PM 42.7236 -73.8081 289° West 119 137 600  Descending Boston Center
Tue 03:31:51 PM 42.7214 -73.6158 91° East 230 265 11,000 6,710 Climbing Boston Center
Tue 03:32:51 PM 42.7494 -73.5400 63° Northeast 230 265 11,000  Level Boston Center
Tue 03:33:52 PM 42.7600 -73.5089 65° Northeast 230 265 11,000  Level Boston Center
Tue 03:34:52 PM 42.7600 -73.5089 90° East 230 265 11,000  Level Boston Center

Login

Don't have an account? Register now (free) for customized features, flight alerts, and more!